createdAt,value
2022-10-31T00:02:41.372Z,100693.40
2022-10-31T00:07:44.297Z,100683.80
2022-10-31T00:12:47.099Z,100688.80
2022-10-31T00:17:49.830Z,100687.80
2022-10-31T00:22:52.614Z,100689.80
2022-10-31T00:27:56.184Z,100695.80
2022-10-31T00:33:00.198Z,100697.20
2022-10-31T00:38:03.290Z,100698.80
2022-10-31T00:43:06.100Z,100705.40
2022-10-31T00:48:09.742Z,100708.80
2022-10-31T00:53:12.560Z,100706.20
2022-10-31T00:58:15.850Z,100711.00
2022-10-31T01:03:18.917Z,100720.20
2022-10-31T01:08:21.683Z,100720.60
2022-10-31T01:13:24.552Z,100728.60
2022-10-31T01:18:28.973Z,100727.00
2022-10-31T01:23:32.824Z,100721.40
2022-10-31T01:28:46.230Z,100725.00
2022-10-31T01:33:50.164Z,100724.80
2022-10-31T01:38:57.334Z,100731.60
2022-10-31T01:44:20.348Z,100729.20
2022-10-31T01:49:34.374Z,100736.60
2022-10-31T01:54:46.834Z,100734.00
2022-10-31T01:59:56.174Z,100737.60
2022-10-31T02:05:05.545Z,100743.80
2022-10-31T02:10:08.732Z,100752.00
2022-10-31T02:15:11.900Z,100752.20
2022-10-31T02:20:22.115Z,100751.80
2022-10-31T02:25:24.908Z,100751.60
2022-10-31T02:30:48.895Z,100766.00
2022-10-31T02:36:35.449Z,100768.40
2022-10-31T02:42:02.383Z,100767.20
2022-10-31T02:47:17.708Z,100767.80
2022-10-31T02:52:33.530Z,100765.80
2022-10-31T02:57:38.560Z,100772.80
2022-10-31T03:03:30.843Z,100777.20
2022-10-31T03:08:48.087Z,100788.20
2022-10-31T03:14:18.944Z,100786.00
2022-10-31T03:19:29.829Z,100781.40
2022-10-31T03:24:39.383Z,100785.80
2022-10-31T03:29:45.573Z,100780.20
2022-10-31T03:34:50.823Z,100773.80
2022-10-31T03:39:58.195Z,100780.80
2022-10-31T03:45:14.638Z,100782.80
2022-10-31T03:50:18.552Z,100786.20
2022-10-31T03:56:01.923Z,100790.20
2022-10-31T04:01:10.572Z,100790.40
2022-10-31T04:06:17.736Z,100795.00
2022-10-31T04:11:29.678Z,100798.40
2022-10-31T04:16:32.969Z,100795.60
2022-10-31T04:21:35.731Z,100795.60
2022-10-31T04:26:38.648Z,100804.60
2022-10-31T04:31:41.383Z,100805.80
2022-10-31T04:36:44.153Z,100813.40
2022-10-31T04:41:46.946Z,100813.20
2022-10-31T04:46:49.834Z,100811.20
2022-10-31T04:51:52.622Z,100797.60
2022-10-31T04:56:55.399Z,100793.80
2022-10-31T05:01:58.283Z,100791.00
2022-10-31T05:07:01.124Z,100787.00
2022-10-31T05:12:04.554Z,100789.80
2022-10-31T05:17:07.459Z,100794.20
2022-10-31T05:22:10.275Z,100783.40
2022-10-31T05:27:13.052Z,100781.40
2022-10-31T05:32:15.982Z,100783.00
2022-10-31T05:37:18.729Z,100788.20
2022-10-31T05:42:21.523Z,100789.80
2022-10-31T05:47:25.151Z,100788.80
2022-10-31T05:52:28.029Z,100783.40
2022-10-31T05:57:35.033Z,100783.60
2022-10-31T06:02:37.833Z,100783.60
2022-10-31T06:07:40.968Z,100771.60
2022-10-31T06:12:43.728Z,100768.80
2022-10-31T06:17:46.490Z,100777.60
2022-10-31T06:22:49.330Z,100788.60
2022-10-31T06:27:52.134Z,100794.20
2022-10-31T06:32:54.988Z,100795.80
2022-10-31T06:37:57.861Z,100800.60
2022-10-31T06:43:02.436Z,100807.60
2022-10-31T06:48:22.181Z,100811.60
2022-10-31T06:53:25.425Z,100810.80
2022-10-31T06:58:28.263Z,100815.60
2022-10-31T07:03:31.059Z,100822.60
2022-10-31T07:08:33.858Z,100827.00
2022-10-31T07:13:36.793Z,100828.80
2022-10-31T07:18:39.736Z,100827.80
2022-10-31T07:23:42.680Z,100831.00
2022-10-31T07:28:48.587Z,100827.20
2022-10-31T07:33:51.753Z,100828.80
2022-10-31T07:38:54.657Z,100834.60
2022-10-31T07:43:57.486Z,100848.00
2022-10-31T07:49:00.358Z,100856.40
2022-10-31T07:54:03.278Z,100863.80
2022-10-31T07:59:06.061Z,100876.00
2022-10-31T08:04:08.852Z,100871.60
2022-10-31T08:09:11.769Z,100863.20
2022-10-31T08:14:14.561Z,100867.60
2022-10-31T08:19:17.437Z,100871.80
2022-10-31T08:24:20.345Z,100866.20
2022-10-31T08:29:23.177Z,100864.40
2022-10-31T08:34:26.593Z,100866.00
2022-10-31T08:39:29.625Z,100867.00
2022-10-31T08:44:32.421Z,100868.40
2022-10-31T08:49:35.303Z,100862.40
2022-10-31T08:54:38.238Z,100876.00
2022-10-31T08:59:41.034Z,100871.20
2022-10-31T09:04:43.833Z,100869.60
2022-10-31T09:09:46.914Z,100875.80
2022-10-31T09:14:49.691Z,100882.20
2022-10-31T09:19:52.465Z,100889.40
2022-10-31T09:24:55.273Z,100884.00
2022-10-31T09:29:58.108Z,100874.80
2022-10-31T09:35:01.474Z,100878.00
2022-10-31T09:40:05.877Z,100875.60
2022-10-31T09:45:33.892Z,100880.80
2022-10-31T09:51:11.024Z,100891.80
2022-10-31T09:56:22.106Z,100891.00
2022-10-31T10:01:48.798Z,100889.60
2022-10-31T10:06:53.243Z,100879.60
2022-10-31T10:12:40.893Z,100873.80
2022-10-31T10:18:14.402Z,100877.00
2022-10-31T10:23:54.951Z,100877.00
2022-10-31T10:29:12.581Z,100878.20
2022-10-31T10:34:41.447Z,100872.00
2022-10-31T10:39:56.852Z,100865.00
2022-10-31T10:45:24.964Z,100859.80
2022-10-31T10:50:37.151Z,100862.40
2022-10-31T10:55:54.052Z,100858.60
2022-10-31T11:00:57.336Z,100871.40
2022-10-31T11:06:02.257Z,100872.20
2022-10-31T11:11:33.027Z,100873.00
2022-10-31T11:16:50.253Z,100865.00
2022-10-31T11:21:54.212Z,100861.60
2022-10-31T11:27:25.116Z,100853.80
2022-10-31T11:32:30.820Z,100859.20
2022-10-31T11:37:41.116Z,100856.00
2022-10-31T11:42:44.925Z,100858.00
2022-10-31T11:47:56.663Z,100852.80
2022-10-31T11:53:02.690Z,100856.40
2022-10-31T11:58:20.445Z,100848.60
2022-10-31T12:03:23.265Z,100853.60
2022-10-31T12:08:37.421Z,100848.00
2022-10-31T12:13:45.430Z,100839.60
2022-10-31T12:19:01.932Z,100843.00
2022-10-31T12:24:14.505Z,100834.60
2022-10-31T12:29:48.584Z,100834.80
2022-10-31T12:35:24.850Z,100827.00
2022-10-31T12:40:41.334Z,100817.20
2022-10-31T12:46:00.309Z,100819.20
2022-10-31T12:51:06.115Z,100823.60
2022-10-31T12:56:09.072Z,100817.80
2022-10-31T13:01:40.094Z,100815.40
2022-10-31T13:06:59.597Z,100819.60
2022-10-31T13:12:12.886Z,100813.20
2022-10-31T13:17:45.237Z,100816.80
2022-10-31T13:22:54.140Z,100815.40
2022-10-31T13:28:24.301Z,100811.80
2022-10-31T13:33:48.658Z,100816.80
2022-10-31T13:39:16.241Z,100813.60
2022-10-31T13:44:26.093Z,100808.60
2022-10-31T13:49:31.987Z,100810.60
2022-10-31T13:54:37.891Z,100815.80
2022-10-31T13:59:47.605Z,100813.80
2022-10-31T14:04:57.898Z,100818.20
2022-10-31T14:10:09.251Z,100810.20
2022-10-31T14:15:28.888Z,100811.40
2022-10-31T14:20:42.500Z,100813.00
2022-10-31T14:25:45.822Z,100810.00
2022-10-31T14:30:58.859Z,100807.00
2022-10-31T14:36:26.354Z,100802.60
2022-10-31T14:42:10.633Z,100806.40
2022-10-31T14:47:33.493Z,100804.80
2022-10-31T14:52:39.478Z,100809.40
2022-10-31T14:57:55.380Z,100802.40
2022-10-31T15:03:17.928Z,100800.80
2022-10-31T15:08:53.377Z,100797.20
2022-10-31T15:14:03.329Z,100794.80
2022-10-31T15:19:13.426Z,100792.80
2022-10-31T15:24:19.782Z,100799.20
2022-10-31T15:29:27.901Z,100804.40
2022-10-31T15:34:41.081Z,100812.60
2022-10-31T15:39:45.822Z,100817.40
2022-10-31T15:45:19.697Z,100817.60
2022-10-31T15:50:42.033Z,100815.60
2022-10-31T15:55:54.496Z,100811.40
2022-10-31T16:01:06.372Z,100808.80
2022-10-31T16:06:22.290Z,100817.60
2022-10-31T16:11:35.276Z,100821.80
2022-10-31T16:16:50.602Z,100817.80
2022-10-31T16:22:04.885Z,100815.00
2022-10-31T16:27:30.048Z,100818.40
2022-10-31T16:32:52.658Z,100823.20
2022-10-31T16:37:55.824Z,100825.00
2022-10-31T16:43:01.588Z,100828.00
2022-10-31T16:48:10.843Z,100838.60
2022-10-31T16:53:18.626Z,100852.00
2022-10-31T16:58:30.747Z,100855.40
2022-10-31T17:03:34.143Z,100855.00
2022-10-31T17:08:37.445Z,100856.00
2022-10-31T17:13:40.691Z,100854.40
2022-10-31T17:18:43.975Z,100860.20
2022-10-31T17:23:58.031Z,100860.40
2022-10-31T17:29:04.038Z,100863.00
2022-10-31T17:34:08.963Z,100863.00
2022-10-31T17:39:11.931Z,100865.00
2022-10-31T17:44:14.758Z,100859.60
2022-10-31T17:49:17.599Z,100862.40
2022-10-31T17:54:22.933Z,100854.80
2022-10-31T17:59:27.762Z,100853.20
2022-10-31T18:04:30.563Z,100852.20
2022-10-31T18:09:34.298Z,100845.60
2022-10-31T18:14:37.123Z,100838.40
2022-10-31T18:19:39.948Z,100838.40
2022-10-31T18:24:43.151Z,100841.60
2022-10-31T18:29:46.636Z,100838.40
2022-10-31T18:34:49.537Z,100834.40
2022-10-31T18:39:52.490Z,100832.20
2022-10-31T18:44:56.258Z,100839.20
2022-10-31T18:49:59.190Z,100842.40
2022-10-31T18:55:02.026Z,100837.00
2022-10-31T19:00:06.925Z,100838.60
2022-10-31T19:05:09.883Z,100839.00
2022-10-31T19:10:13.036Z,100838.80
2022-10-31T19:15:16.039Z,100838.80
2022-10-31T19:20:18.995Z,100828.60
2022-10-31T19:25:22.121Z,100825.40
2022-10-31T19:30:25.035Z,100822.40
2022-10-31T19:35:27.994Z,100824.80
2022-10-31T19:40:30.961Z,100822.20
2022-10-31T19:45:33.920Z,100828.80
2022-10-31T19:50:36.785Z,100836.80
2022-10-31T19:55:41.339Z,100834.40
2022-10-31T20:00:44.301Z,100834.60
2022-10-31T20:05:47.573Z,100829.60
2022-10-31T20:10:59.475Z,100835.20
2022-10-31T20:16:07.164Z,100830.20
2022-10-31T20:21:14.450Z,100825.20
2022-10-31T20:26:19.890Z,100825.40
2022-10-31T20:31:36.035Z,100825.60
2022-10-31T20:36:38.974Z,100827.40
2022-10-31T20:41:41.920Z,100824.80
2022-10-31T20:46:44.758Z,100819.00
2022-10-31T20:51:47.832Z,100825.00
2022-10-31T20:56:50.760Z,100826.20
2022-10-31T21:01:53.831Z,100823.00
2022-10-31T21:06:56.874Z,100824.40
2022-10-31T21:11:59.867Z,100816.60
2022-10-31T21:17:05.135Z,100810.00
2022-10-31T21:22:08.081Z,100810.60
2022-10-31T21:27:12.511Z,100812.60
2022-10-31T21:32:15.688Z,100808.40
2022-10-31T21:37:18.616Z,100808.60
2022-10-31T21:42:23.305Z,100805.20
2022-10-31T21:47:26.304Z,100802.20
2022-10-31T21:52:29.200Z,100801.20
2022-10-31T21:57:33.004Z,100800.00
2022-10-31T22:02:37.335Z,100795.80
2022-10-31T22:07:40.324Z,100799.80
2022-10-31T22:12:44.166Z,100801.40
2022-10-31T22:17:47.001Z,100800.40
2022-10-31T22:22:51.079Z,100796.00
2022-10-31T22:27:53.940Z,100788.80
2022-10-31T22:32:56.764Z,100787.80
2022-10-31T22:37:59.625Z,100782.20
2022-10-31T22:43:02.765Z,100786.60
2022-10-31T22:48:06.447Z,100784.20
2022-10-31T22:53:09.286Z,100780.40
2022-10-31T22:58:12.254Z,100784.00
2022-10-31T23:03:15.181Z,100785.60
2022-10-31T23:08:18.015Z,100791.60
2022-10-31T23:13:39.458Z,100786.80
2022-10-31T23:18:50.154Z,100781.60
2022-10-31T23:23:53.632Z,100777.60
2022-10-31T23:28:56.528Z,100776.80
2022-10-31T23:33:59.338Z,100775.00
2022-10-31T23:39:04.888Z,100772.40
2022-10-31T23:44:07.861Z,100778.20
2022-10-31T23:49:11.568Z,100772.40
2022-10-31T23:54:14.644Z,100765.40
2022-10-31T23:59:18.194Z,100761.40
